sensor_id;sensor_type;location;lat;lon;timestamp;temperature;humidity
65239;SHT30;51827;51.186;6.926;2022-10-18T00:00:42;20.25;67.87
65239;SHT30;51827;51.186;6.926;2022-10-18T00:01:42;20.24;67.86
65239;SHT30;51827;51.186;6.926;2022-10-18T00:02:43;20.24;67.81
65239;SHT30;51827;51.186;6.926;2022-10-18T00:03:43;20.27;67.88
65239;SHT30;51827;51.186;6.926;2022-10-18T00:04:43;20.25;67.87
65239;SHT30;51827;51.186;6.926;2022-10-18T00:05:43;20.25;67.85
65239;SHT30;51827;51.186;6.926;2022-10-18T00:06:44;20.27;67.85
65239;SHT30;51827;51.186;6.926;2022-10-18T00:07:44;20.21;67.81
65239;SHT30;51827;51.186;6.926;2022-10-18T00:08:44;20.25;67.84
65239;SHT30;51827;51.186;6.926;2022-10-18T00:09:44;20.25;67.86
65239;SHT30;51827;51.186;6.926;2022-10-18T00:10:45;20.24;67.84
65239;SHT30;51827;51.186;6.926;2022-10-18T00:11:45;20.24;67.86
65239;SHT30;51827;51.186;6.926;2022-10-18T00:12:45;20.25;67.88
65239;SHT30;51827;51.186;6.926;2022-10-18T00:13:45;20.24;67.81
65239;SHT30;51827;51.186;6.926;2022-10-18T00:14:48;20.25;67.75
65239;SHT30;51827;51.186;6.926;2022-10-18T00:15:51;20.25;67.82
65239;SHT30;51827;51.186;6.926;2022-10-18T00:16:51;20.24;67.80
65239;SHT30;51827;51.186;6.926;2022-10-18T00:17:51;20.22;67.83
65239;SHT30;51827;51.186;6.926;2022-10-18T00:18:52;20.28;67.81
65239;SHT30;51827;51.186;6.926;2022-10-18T00:19:52;20.24;67.81
65239;SHT30;51827;51.186;6.926;2022-10-18T00:21:04;20.27;67.79
65239;SHT30;51827;51.186;6.926;2022-10-18T00:22:04;20.27;67.79
65239;SHT30;51827;51.186;6.926;2022-10-18T00:23:05;20.27;67.81
65239;SHT30;51827;51.186;6.926;2022-10-18T00:24:05;20.24;67.86
65239;SHT30;51827;51.186;6.926;2022-10-18T00:25:07;20.25;67.80
65239;SHT30;51827;51.186;6.926;2022-10-18T00:26:11;20.25;67.75
65239;SHT30;51827;51.186;6.926;2022-10-18T00:27:11;20.25;67.81
65239;SHT30;51827;51.186;6.926;2022-10-18T00:28:11;20.24;67.82
65239;SHT30;51827;51.186;6.926;2022-10-18T00:29:13;20.25;67.81
65239;SHT30;51827;51.186;6.926;2022-10-18T00:30:14;20.25;67.79
65239;SHT30;51827;51.186;6.926;2022-10-18T00:31:21;20.24;67.81
65239;SHT30;51827;51.186;6.926;2022-10-18T00:32:21;20.22;67.84
65239;SHT30;51827;51.186;6.926;2022-10-18T00:33:21;20.24;67.82
65239;SHT30;51827;51.186;6.926;2022-10-18T00:34:22;20.22;67.83
65239;SHT30;51827;51.186;6.926;2022-10-18T00:35:22;20.22;67.78
65239;SHT30;51827;51.186;6.926;2022-10-18T00:36:23;20.25;67.79
65239;SHT30;51827;51.186;6.926;2022-10-18T00:37:24;20.27;67.74
65239;SHT30;51827;51.186;6.926;2022-10-18T00:38:24;20.25;67.75
65239;SHT30;51827;51.186;6.926;2022-10-18T00:39:24;20.25;67.77
65239;SHT30;51827;51.186;6.926;2022-10-18T00:40:24;20.24;67.81
65239;SHT30;51827;51.186;6.926;2022-10-18T00:41:28;20.22;67.80
65239;SHT30;51827;51.186;6.926;2022-10-18T00:42:33;20.24;67.80
65239;SHT30;51827;51.186;6.926;2022-10-18T00:45:22;20.25;67.78
65239;SHT30;51827;51.186;6.926;2022-10-18T00:46:24;20.28;67.81
65239;SHT30;51827;51.186;6.926;2022-10-18T00:47:25;20.25;67.80
65239;SHT30;51827;51.186;6.926;2022-10-18T00:48:25;20.24;67.81
65239;SHT30;51827;51.186;6.926;2022-10-18T00:49:32;20.22;67.84
65239;SHT30;51827;51.186;6.926;2022-10-18T00:50:33;20.24;67.86
65239;SHT30;51827;51.186;6.926;2022-10-18T00:51:41;20.24;67.87
65239;SHT30;51827;51.186;6.926;2022-10-18T00:52:48;20.24;67.89
65239;SHT30;51827;51.186;6.926;2022-10-18T00:53:50;20.21;67.86
65239;SHT30;51827;51.186;6.926;2022-10-18T00:54:51;20.25;67.88
65239;SHT30;51827;51.186;6.926;2022-10-18T00:55:52;20.24;67.89
65239;SHT30;51827;51.186;6.926;2022-10-18T00:56:52;20.24;67.93
65239;SHT30;51827;51.186;6.926;2022-10-18T00:57:54;20.24;67.93
65239;SHT30;51827;51.186;6.926;2022-10-18T00:58:54;20.22;67.93
65239;SHT30;51827;51.186;6.926;2022-10-18T00:59:56;20.25;67.94
65239;SHT30;51827;51.186;6.926;2022-10-18T01:00:56;20.24;67.99
65239;SHT30;51827;51.186;6.926;2022-10-18T01:01:56;20.22;68.00
65239;SHT30;51827;51.186;6.926;2022-10-18T01:02:57;20.22;67.98
65239;SHT30;51827;51.186;6.926;2022-10-18T01:03:58;20.22;68.01
65239;SHT30;51827;51.186;6.926;2022-10-18T01:04:58;20.21;67.98
65239;SHT30;51827;51.186;6.926;2022-10-18T01:05:59;20.24;68.00
65239;SHT30;51827;51.186;6.926;2022-10-18T01:10:52;20.24;68.01
65239;SHT30;51827;51.186;6.926;2022-10-18T01:12:28;20.25;68.00
65239;SHT30;51827;51.186;6.926;2022-10-18T01:15:28;20.25;68.05
65239;SHT30;51827;51.186;6.926;2022-10-18T01:18:57;20.22;68.02
65239;SHT30;51827;51.186;6.926;2022-10-18T01:22:43;20.24;68.11
65239;SHT30;51827;51.186;6.926;2022-10-18T01:25:02;20.24;68.14
65239;SHT30;51827;51.186;6.926;2022-10-18T01:27:43;20.24;68.09
65239;SHT30;51827;51.186;6.926;2022-10-18T01:31:39;20.24;68.10
65239;SHT30;51827;51.186;6.926;2022-10-18T01:32:46;20.22;68.15
65239;SHT30;51827;51.186;6.926;2022-10-18T01:33:48;20.22;68.14
65239;SHT30;51827;51.186;6.926;2022-10-18T01:34:57;20.22;68.13
65239;SHT30;51827;51.186;6.926;2022-10-18T01:37:07;20.25;68.14
65239;SHT30;51827;51.186;6.926;2022-10-18T01:38:10;20.21;68.14
65239;SHT30;51827;51.186;6.926;2022-10-18T01:39:21;20.24;68.15
65239;SHT30;51827;51.186;6.926;2022-10-18T01:40:22;20.22;68.14
65239;SHT30;51827;51.186;6.926;2022-10-18T01:41:24;20.22;68.13
65239;SHT30;51827;51.186;6.926;2022-10-18T01:42:25;20.21;68.10
65239;SHT30;51827;51.186;6.926;2022-10-18T01:43:26;20.22;68.11
65239;SHT30;51827;51.186;6.926;2022-10-18T01:44:30;20.22;68.11
65239;SHT30;51827;51.186;6.926;2022-10-18T01:45:32;20.25;68.16
65239;SHT30;51827;51.186;6.926;2022-10-18T01:46:32;20.22;68.13
65239;SHT30;51827;51.186;6.926;2022-10-18T01:47:33;20.24;68.17
65239;SHT30;51827;51.186;6.926;2022-10-18T01:48:34;20.24;68.14
65239;SHT30;51827;51.186;6.926;2022-10-18T01:49:35;20.24;68.11
65239;SHT30;51827;51.186;6.926;2022-10-18T01:50:35;20.22;68.12
65239;SHT30;51827;51.186;6.926;2022-10-18T01:51:35;20.24;68.11
65239;SHT30;51827;51.186;6.926;2022-10-18T01:52:48;20.22;68.10
65239;SHT30;51827;51.186;6.926;2022-10-18T01:53:49;20.22;68.18
65239;SHT30;51827;51.186;6.926;2022-10-18T01:54:49;20.22;68.15
65239;SHT30;51827;51.186;6.926;2022-10-18T01:57:23;20.24;68.15
65239;SHT30;51827;51.186;6.926;2022-10-18T01:58:37;20.22;68.16
65239;SHT30;51827;51.186;6.926;2022-10-18T01:59:47;20.24;68.17
65239;SHT30;51827;51.186;6.926;2022-10-18T02:00:56;20.24;68.13
65239;SHT30;51827;51.186;6.926;2022-10-18T02:03:21;20.21;68.20
65239;SHT30;51827;51.186;6.926;2022-10-18T02:06:15;20.22;68.17
65239;SHT30;51827;51.186;6.926;2022-10-18T02:07:35;20.22;68.20
65239;SHT30;51827;51.186;6.926;2022-10-18T02:09:00;20.22;68.17
65239;SHT30;51827;51.186;6.926;2022-10-18T02:10:10;20.22;68.19
65239;SHT30;51827;51.186;6.926;2022-10-18T02:11:12;20.24;68.15
65239;SHT30;51827;51.186;6.926;2022-10-18T02:12:14;20.21;68.16
65239;SHT30;51827;51.186;6.926;2022-10-18T02:13:18;20.24;68.12
65239;SHT30;51827;51.186;6.926;2022-10-18T02:14:20;20.22;68.17
65239;SHT30;51827;51.186;6.926;2022-10-18T02:15:29;20.22;68.14
65239;SHT30;51827;51.186;6.926;2022-10-18T02:16:43;20.22;68.12
65239;SHT30;51827;51.186;6.926;2022-10-18T02:17:44;20.24;68.11
65239;SHT30;51827;51.186;6.926;2022-10-18T02:18:54;20.22;68.14
65239;SHT30;51827;51.186;6.926;2022-10-18T02:19:56;20.22;68.14
65239;SHT30;51827;51.186;6.926;2022-10-18T02:20:57;20.21;68.13
65239;SHT30;51827;51.186;6.926;2022-10-18T02:21:58;20.24;68.17
65239;SHT30;51827;51.186;6.926;2022-10-18T02:22:59;20.22;68.16
65239;SHT30;51827;51.186;6.926;2022-10-18T02:24:01;20.21;68.19
65239;SHT30;51827;51.186;6.926;2022-10-18T02:25:04;20.24;68.13
65239;SHT30;51827;51.186;6.926;2022-10-18T02:26:07;20.21;68.14
65239;SHT30;51827;51.186;6.926;2022-10-18T02:27:07;20.21;68.15
65239;SHT30;51827;51.186;6.926;2022-10-18T02:28:08;20.21;68.13
65239;SHT30;51827;51.186;6.926;2022-10-18T02:29:08;20.21;68.13
65239;SHT30;51827;51.186;6.926;2022-10-18T02:30:09;20.22;68.17
65239;SHT30;51827;51.186;6.926;2022-10-18T02:31:20;20.22;68.11
65239;SHT30;51827;51.186;6.926;2022-10-18T02:33:34;20.24;68.10
65239;SHT30;51827;51.186;6.926;2022-10-18T02:34:41;20.24;68.12
65239;SHT30;51827;51.186;6.926;2022-10-18T02:35:46;20.22;68.13
65239;SHT30;51827;51.186;6.926;2022-10-18T02:36:51;20.21;68.12
65239;SHT30;51827;51.186;6.926;2022-10-18T02:37:53;20.24;68.08
65239;SHT30;51827;51.186;6.926;2022-10-18T02:38:59;20.25;68.11
65239;SHT30;51827;51.186;6.926;2022-10-18T02:40:03;20.22;68.09
65239;SHT30;51827;51.186;6.926;2022-10-18T02:41:04;20.24;68.12
65239;SHT30;51827;51.186;6.926;2022-10-18T02:42:05;20.22;68.10
65239;SHT30;51827;51.186;6.926;2022-10-18T02:43:05;20.22;68.12
65239;SHT30;51827;51.186;6.926;2022-10-18T02:44:06;20.24;68.15
65239;SHT30;51827;51.186;6.926;2022-10-18T02:45:06;20.21;68.13
65239;SHT30;51827;51.186;6.926;2022-10-18T02:46:06;20.21;68.15
65239;SHT30;51827;51.186;6.926;2022-10-18T02:47:08;20.21;68.15
65239;SHT30;51827;51.186;6.926;2022-10-18T02:48:09;20.22;68.13
65239;SHT30;51827;51.186;6.926;2022-10-18T02:49:10;20.22;68.14
65239;SHT30;51827;51.186;6.926;2022-10-18T02:50:10;20.21;68.17
65239;SHT30;51827;51.186;6.926;2022-10-18T02:51:10;20.24;68.16
65239;SHT30;51827;51.186;6.926;2022-10-18T02:52:11;20.21;68.17
65239;SHT30;51827;51.186;6.926;2022-10-18T02:53:11;20.22;68.16
65239;SHT30;51827;51.186;6.926;2022-10-18T02:54:11;20.20;68.17
65239;SHT30;51827;51.186;6.926;2022-10-18T02:55:12;20.22;68.15
65239;SHT30;51827;51.186;6.926;2022-10-18T02:56:12;20.22;68.14
65239;SHT30;51827;51.186;6.926;2022-10-18T02:57:12;20.24;68.11
65239;SHT30;51827;51.186;6.926;2022-10-18T02:58:12;20.22;68.07
65239;SHT30;51827;51.186;6.926;2022-10-18T02:59:13;20.22;68.09
65239;SHT30;51827;51.186;6.926;2022-10-18T03:00:13;20.24;68.09
65239;SHT30;51827;51.186;6.926;2022-10-18T03:01:14;20.24;68.09
65239;SHT30;51827;51.186;6.926;2022-10-18T03:02:14;20.24;68.13
65239;SHT30;51827;51.186;6.926;2022-10-18T03:03:14;20.24;68.10
65239;SHT30;51827;51.186;6.926;2022-10-18T03:04:14;20.22;68.11
65239;SHT30;51827;51.186;6.926;2022-10-18T03:05:15;20.22;68.10
65239;SHT30;51827;51.186;6.926;2022-10-18T03:06:15;20.24;68.10
65239;SHT30;51827;51.186;6.926;2022-10-18T03:07:15;20.24;68.14
65239;SHT30;51827;51.186;6.926;2022-10-18T03:08:15;20.24;68.09
65239;SHT30;51827;51.186;6.926;2022-10-18T03:09:16;20.24;68.09
65239;SHT30;51827;51.186;6.926;2022-10-18T03:10:16;20.22;68.09
65239;SHT30;51827;51.186;6.926;2022-10-18T03:11:16;20.21;68.08
65239;SHT30;51827;51.186;6.926;2022-10-18T03:12:17;20.22;68.11
65239;SHT30;51827;51.186;6.926;2022-10-18T03:13:17;20.24;68.12
65239;SHT30;51827;51.186;6.926;2022-10-18T03:14:17;20.20;68.14
65239;SHT30;51827;51.186;6.926;2022-10-18T03:15:17;20.22;68.12
65239;SHT30;51827;51.186;6.926;2022-10-18T03:16:18;20.21;68.06
65239;SHT30;51827;51.186;6.926;2022-10-18T03:17:18;20.24;68.07
65239;SHT30;51827;51.186;6.926;2022-10-18T03:18:18;20.24;68.06
65239;SHT30;51827;51.186;6.926;2022-10-18T03:19:18;20.24;68.08
65239;SHT30;51827;51.186;6.926;2022-10-18T03:20:19;20.22;68.11
65239;SHT30;51827;51.186;6.926;2022-10-18T03:21:19;20.22;68.12
65239;SHT30;51827;51.186;6.926;2022-10-18T03:22:19;20.24;68.07
65239;SHT30;51827;51.186;6.926;2022-10-18T03:23:20;20.22;68.09
65239;SHT30;51827;51.186;6.926;2022-10-18T03:24:20;20.24;68.13
65239;SHT30;51827;51.186;6.926;2022-10-18T03:25:20;20.21;68.07
65239;SHT30;51827;51.186;6.926;2022-10-18T03:26:20;20.20;68.13
65239;SHT30;51827;51.186;6.926;2022-10-18T03:27:21;20.21;68.19
65239;SHT30;51827;51.186;6.926;2022-10-18T03:28:21;20.21;68.18
65239;SHT30;51827;51.186;6.926;2022-10-18T03:29:21;20.21;68.17
65239;SHT30;51827;51.186;6.926;2022-10-18T03:30:21;20.18;68.14
65239;SHT30;51827;51.186;6.926;2022-10-18T03:31:22;20.21;68.14
65239;SHT30;51827;51.186;6.926;2022-10-18T03:32:22;20.21;68.09
65239;SHT30;51827;51.186;6.926;2022-10-18T03:33:22;20.21;68.12
65239;SHT30;51827;51.186;6.926;2022-10-18T03:34:22;20.24;68.06
65239;SHT30;51827;51.186;6.926;2022-10-18T03:35:23;20.21;68.08
65239;SHT30;51827;51.186;6.926;2022-10-18T03:36:23;20.21;68.07
65239;SHT30;51827;51.186;6.926;2022-10-18T03:37:23;20.22;68.11
65239;SHT30;51827;51.186;6.926;2022-10-18T03:38:24;20.21;68.06
65239;SHT30;51827;51.186;6.926;2022-10-18T03:39:24;20.22;68.01
65239;SHT30;51827;51.186;6.926;2022-10-18T03:40:24;20.21;68.08
65239;SHT30;51827;51.186;6.926;2022-10-18T03:41:24;20.20;68.00
65239;SHT30;51827;51.186;6.926;2022-10-18T03:42:25;20.20;67.96
65239;SHT30;51827;51.186;6.926;2022-10-18T03:43:25;20.21;68.05
65239;SHT30;51827;51.186;6.926;2022-10-18T03:44:25;20.21;68.00
65239;SHT30;51827;51.186;6.926;2022-10-18T03:45:26;20.20;68.02
65239;SHT30;51827;51.186;6.926;2022-10-18T03:46:27;20.21;67.98
65239;SHT30;51827;51.186;6.926;2022-10-18T03:47:27;20.21;67.99
65239;SHT30;51827;51.186;6.926;2022-10-18T03:48:27;20.22;68.01
65239;SHT30;51827;51.186;6.926;2022-10-18T03:49:28;20.21;68.03
65239;SHT30;51827;51.186;6.926;2022-10-18T03:50:28;20.21;68.06
65239;SHT30;51827;51.186;6.926;2022-10-18T03:51:28;20.21;67.99
65239;SHT30;51827;51.186;6.926;2022-10-18T03:52:28;20.21;68.04
65239;SHT30;51827;51.186;6.926;2022-10-18T03:53:29;20.18;68.02
65239;SHT30;51827;51.186;6.926;2022-10-18T03:54:29;20.20;68.00
65239;SHT30;51827;51.186;6.926;2022-10-18T03:55:30;20.21;67.99
65239;SHT30;51827;51.186;6.926;2022-10-18T03:56:30;20.21;68.02
65239;SHT30;51827;51.186;6.926;2022-10-18T03:57:30;20.18;68.04
65239;SHT30;51827;51.186;6.926;2022-10-18T03:58:30;20.20;67.97
65239;SHT30;51827;51.186;6.926;2022-10-18T03:59:31;20.20;68.01
65239;SHT30;51827;51.186;6.926;2022-10-18T04:00:31;20.18;68.00
65239;SHT30;51827;51.186;6.926;2022-10-18T04:01:32;20.21;68.02
65239;SHT30;51827;51.186;6.926;2022-10-18T04:02:32;20.20;68.03
65239;SHT30;51827;51.186;6.926;2022-10-18T04:03:32;20.20;68.02
65239;SHT30;51827;51.186;6.926;2022-10-18T04:04:32;20.20;68.08
65239;SHT30;51827;51.186;6.926;2022-10-18T04:05:33;20.20;68.06
65239;SHT30;51827;51.186;6.926;2022-10-18T04:06:33;20.21;68.06
65239;SHT30;51827;51.186;6.926;2022-10-18T04:07:34;20.22;68.01
65239;SHT30;51827;51.186;6.926;2022-10-18T04:08:34;20.22;67.97
65239;SHT30;51827;51.186;6.926;2022-10-18T04:09:35;20.21;68.03
65239;SHT30;51827;51.186;6.926;2022-10-18T04:10:36;20.21;68.02
65239;SHT30;51827;51.186;6.926;2022-10-18T04:11:37;20.22;67.97
65239;SHT30;51827;51.186;6.926;2022-10-18T04:12:37;20.21;68.01
65239;SHT30;51827;51.186;6.926;2022-10-18T04:13:38;20.22;67.99
65239;SHT30;51827;51.186;6.926;2022-10-18T04:14:38;20.21;68.02
65239;SHT30;51827;51.186;6.926;2022-10-18T04:15:38;20.21;68.04
65239;SHT30;51827;51.186;6.926;2022-10-18T04:16:38;20.21;68.02
65239;SHT30;51827;51.186;6.926;2022-10-18T04:17:39;20.22;68.02
65239;SHT30;51827;51.186;6.926;2022-10-18T04:18:39;20.18;67.99
65239;SHT30;51827;51.186;6.926;2022-10-18T04:19:39;20.18;68.04
65239;SHT30;51827;51.186;6.926;2022-10-18T04:20:45;20.22;68.07
65239;SHT30;51827;51.186;6.926;2022-10-18T04:21:45;20.21;68.04
65239;SHT30;51827;51.186;6.926;2022-10-18T04:22:47;20.18;68.08
65239;SHT30;51827;51.186;6.926;2022-10-18T04:23:48;20.21;68.08
65239;SHT30;51827;51.186;6.926;2022-10-18T04:24:48;20.21;68.13
65239;SHT30;51827;51.186;6.926;2022-10-18T04:25:48;20.20;68.16
65239;SHT30;51827;51.186;6.926;2022-10-18T04:26:49;20.20;68.16
65239;SHT30;51827;51.186;6.926;2022-10-18T04:27:49;20.20;68.17
65239;SHT30;51827;51.186;6.926;2022-10-18T04:28:49;20.21;68.12
65239;SHT30;51827;51.186;6.926;2022-10-18T04:29:50;20.20;68.16
65239;SHT30;51827;51.186;6.926;2022-10-18T04:30:51;20.21;68.24
65239;SHT30;51827;51.186;6.926;2022-10-18T04:31:51;20.22;68.26
65239;SHT30;51827;51.186;6.926;2022-10-18T04:32:52;20.20;68.29
65239;SHT30;51827;51.186;6.926;2022-10-18T04:33:52;20.21;68.24
65239;SHT30;51827;51.186;6.926;2022-10-18T04:34:52;20.24;68.35
65239;SHT30;51827;51.186;6.926;2022-10-18T04:35:53;20.24;68.33
65239;SHT30;51827;51.186;6.926;2022-10-18T04:36:53;20.21;68.39
65239;SHT30;51827;51.186;6.926;2022-10-18T04:37:53;20.24;68.45
65239;SHT30;51827;51.186;6.926;2022-10-18T04:38:54;20.22;68.45
65239;SHT30;51827;51.186;6.926;2022-10-18T04:39:54;20.22;68.58
65239;SHT30;51827;51.186;6.926;2022-10-18T04:40:54;20.21;68.56
65239;SHT30;51827;51.186;6.926;2022-10-18T04:41:55;20.21;68.56
65239;SHT30;51827;51.186;6.926;2022-10-18T04:42:55;20.22;68.58
65239;SHT30;51827;51.186;6.926;2022-10-18T04:43:55;20.24;68.62
65239;SHT30;51827;51.186;6.926;2022-10-18T04:44:55;20.25;68.54
65239;SHT30;51827;51.186;6.926;2022-10-18T04:45:56;20.24;68.56
65239;SHT30;51827;51.186;6.926;2022-10-18T04:46:56;20.24;68.58
65239;SHT30;51827;51.186;6.926;2022-10-18T04:47:56;20.22;68.47
65239;SHT30;51827;51.186;6.926;2022-10-18T04:48:56;20.25;68.56
65239;SHT30;51827;51.186;6.926;2022-10-18T04:49:57;20.22;68.50
65239;SHT30;51827;51.186;6.926;2022-10-18T04:50:57;20.24;68.51
65239;SHT30;51827;51.186;6.926;2022-10-18T04:51:57;20.24;68.59
65239;SHT30;51827;51.186;6.926;2022-10-18T04:52:57;20.24;68.51
65239;SHT30;51827;51.186;6.926;2022-10-18T04:53:58;20.27;68.55
65239;SHT30;51827;51.186;6.926;2022-10-18T04:54:58;20.22;68.49
65239;SHT30;51827;51.186;6.926;2022-10-18T04:55:58;20.24;68.40
65239;SHT30;51827;51.186;6.926;2022-10-18T04:56:58;20.22;68.47
65239;SHT30;51827;51.186;6.926;2022-10-18T04:57:59;20.24;68.53
65239;SHT30;51827;51.186;6.926;2022-10-18T04:58:59;20.20;68.52
65239;SHT30;51827;51.186;6.926;2022-10-18T04:59:59;20.24;68.53
65239;SHT30;51827;51.186;6.926;2022-10-18T05:01:04;20.25;68.52
65239;SHT30;51827;51.186;6.926;2022-10-18T05:02:04;20.24;68.49
65239;SHT30;51827;51.186;6.926;2022-10-18T05:03:05;20.27;68.47
65239;SHT30;51827;51.186;6.926;2022-10-18T05:04:05;20.22;68.50
65239;SHT30;51827;51.186;6.926;2022-10-18T05:05:05;20.24;68.46
65239;SHT30;51827;51.186;6.926;2022-10-18T05:06:06;20.24;68.43
65239;SHT30;51827;51.186;6.926;2022-10-18T05:07:06;20.22;68.46
65239;SHT30;51827;51.186;6.926;2022-10-18T05:08:06;20.25;68.52
65239;SHT30;51827;51.186;6.926;2022-10-18T05:09:06;20.24;68.50
65239;SHT30;51827;51.186;6.926;2022-10-18T05:10:07;20.22;68.45
65239;SHT30;51827;51.186;6.926;2022-10-18T05:11:07;20.22;68.45
65239;SHT30;51827;51.186;6.926;2022-10-18T05:12:08;20.22;68.44
65239;SHT30;51827;51.186;6.926;2022-10-18T05:13:08;20.25;68.42
65239;SHT30;51827;51.186;6.926;2022-10-18T05:14:08;20.24;68.42
65239;SHT30;51827;51.186;6.926;2022-10-18T05:15:09;20.22;68.41
65239;SHT30;51827;51.186;6.926;2022-10-18T05:16:09;20.22;68.35
65239;SHT30;51827;51.186;6.926;2022-10-18T05:17:09;20.25;68.40
65239;SHT30;51827;51.186;6.926;2022-10-18T05:18:10;20.24;68.39
65239;SHT30;51827;51.186;6.926;2022-10-18T05:19:10;20.20;68.42
65239;SHT30;51827;51.186;6.926;2022-10-18T05:20:10;20.21;68.40
65239;SHT30;51827;51.186;6.926;2022-10-18T05:21:12;20.21;68.43
65239;SHT30;51827;51.186;6.926;2022-10-18T05:22:12;20.25;68.40
65239;SHT30;51827;51.186;6.926;2022-10-18T05:23:12;20.22;68.35
65239;SHT30;51827;51.186;6.926;2022-10-18T05:24:12;20.24;68.37
65239;SHT30;51827;51.186;6.926;2022-10-18T05:25:13;20.22;68.41
65239;SHT30;51827;51.186;6.926;2022-10-18T05:26:13;20.24;68.35
65239;SHT30;51827;51.186;6.926;2022-10-18T05:27:13;20.21;68.38
65239;SHT30;51827;51.186;6.926;2022-10-18T05:28:14;20.22;68.36
65239;SHT30;51827;51.186;6.926;2022-10-18T05:29:14;20.24;68.39
65239;SHT30;51827;51.186;6.926;2022-10-18T05:30:14;20.22;68.40
65239;SHT30;51827;51.186;6.926;2022-10-18T05:31:15;20.22;68.33
65239;SHT30;51827;51.186;6.926;2022-10-18T05:32:15;20.22;68.33
65239;SHT30;51827;51.186;6.926;2022-10-18T05:33:16;20.24;68.40
65239;SHT30;51827;51.186;6.926;2022-10-18T05:34:16;20.22;68.39
65239;SHT30;51827;51.186;6.926;2022-10-18T05:35:16;20.24;68.31
65239;SHT30;51827;51.186;6.926;2022-10-18T05:36:17;20.24;68.30
65239;SHT30;51827;51.186;6.926;2022-10-18T05:37:17;20.21;68.28
65239;SHT30;51827;51.186;6.926;2022-10-18T05:38:17;20.22;68.32
65239;SHT30;51827;51.186;6.926;2022-10-18T05:39:17;20.22;68.32
65239;SHT30;51827;51.186;6.926;2022-10-18T05:40:18;20.22;68.33
65239;SHT30;51827;51.186;6.926;2022-10-18T05:41:18;20.24;68.30
65239;SHT30;51827;51.186;6.926;2022-10-18T05:42:18;20.22;68.31
65239;SHT30;51827;51.186;6.926;2022-10-18T05:43:19;20.20;68.29
65239;SHT30;51827;51.186;6.926;2022-10-18T05:44:19;20.22;68.29
65239;SHT30;51827;51.186;6.926;2022-10-18T05:45:19;20.20;68.31
65239;SHT30;51827;51.186;6.926;2022-10-18T05:46:19;20.21;68.30
65239;SHT30;51827;51.186;6.926;2022-10-18T05:47:20;20.24;68.30
65239;SHT30;51827;51.186;6.926;2022-10-18T05:48:20;20.24;68.30
65239;SHT30;51827;51.186;6.926;2022-10-18T05:49:20;20.22;68.29
65239;SHT30;51827;51.186;6.926;2022-10-18T05:50:21;20.22;68.30
65239;SHT30;51827;51.186;6.926;2022-10-18T05:51:21;20.21;68.30
65239;SHT30;51827;51.186;6.926;2022-10-18T05:52:21;20.24;68.27
65239;SHT30;51827;51.186;6.926;2022-10-18T05:53:22;20.21;68.26
65239;SHT30;51827;51.186;6.926;2022-10-18T05:54:22;20.22;68.22
65239;SHT30;51827;51.186;6.926;2022-10-18T05:55:23;20.22;68.28
65239;SHT30;51827;51.186;6.926;2022-10-18T05:56:24;20.21;68.30
65239;SHT30;51827;51.186;6.926;2022-10-18T05:57:24;20.21;68.27
65239;SHT30;51827;51.186;6.926;2022-10-18T05:58:24;20.21;68.25
65239;SHT30;51827;51.186;6.926;2022-10-18T05:59:24;20.21;68.26
65239;SHT30;51827;51.186;6.926;2022-10-18T06:00:25;20.18;68.21
65239;SHT30;51827;51.186;6.926;2022-10-18T06:01:25;20.22;68.19
65239;SHT30;51827;51.186;6.926;2022-10-18T06:02:25;20.21;68.20
65239;SHT30;51827;51.186;6.926;2022-10-18T06:03:26;20.22;68.23
65239;SHT30;51827;51.186;6.926;2022-10-18T06:04:26;20.21;68.20
65239;SHT30;51827;51.186;6.926;2022-10-18T06:05:26;20.24;68.23
65239;SHT30;51827;51.186;6.926;2022-10-18T06:06:27;20.22;68.18
65239;SHT30;51827;51.186;6.926;2022-10-18T06:07:27;20.21;68.18
65239;SHT30;51827;51.186;6.926;2022-10-18T06:08:27;20.20;68.19
65239;SHT30;51827;51.186;6.926;2022-10-18T06:09:28;20.22;68.20
65239;SHT30;51827;51.186;6.926;2022-10-18T06:10:28;20.22;68.17
65239;SHT30;51827;51.186;6.926;2022-10-18T06:11:29;20.18;68.15
65239;SHT30;51827;51.186;6.926;2022-10-18T06:12:29;20.20;68.18
65239;SHT30;51827;51.186;6.926;2022-10-18T06:13:30;20.21;68.14
65239;SHT30;51827;51.186;6.926;2022-10-18T06:14:30;20.21;68.15
65239;SHT30;51827;51.186;6.926;2022-10-18T06:15:30;20.20;68.19
65239;SHT30;51827;51.186;6.926;2022-10-18T06:16:31;20.20;68.15
65239;SHT30;51827;51.186;6.926;2022-10-18T06:17:31;20.21;68.11
65239;SHT30;51827;51.186;6.926;2022-10-18T06:18:31;20.21;68.12
65239;SHT30;51827;51.186;6.926;2022-10-18T06:19:32;20.21;68.09
65239;SHT30;51827;51.186;6.926;2022-10-18T06:20:32;20.21;68.09
65239;SHT30;51827;51.186;6.926;2022-10-18T06:21:32;20.24;68.11
65239;SHT30;51827;51.186;6.926;2022-10-18T06:22:32;20.20;68.07
65239;SHT30;51827;51.186;6.926;2022-10-18T06:23:33;20.21;68.08
65239;SHT30;51827;51.186;6.926;2022-10-18T06:24:33;20.22;68.11
65239;SHT30;51827;51.186;6.926;2022-10-18T06:25:33;20.22;68.10
65239;SHT30;51827;51.186;6.926;2022-10-18T06:26:34;20.22;68.10
65239;SHT30;51827;51.186;6.926;2022-10-18T06:27:34;20.21;68.08
65239;SHT30;51827;51.186;6.926;2022-10-18T06:28:35;20.21;68.04
65239;SHT30;51827;51.186;6.926;2022-10-18T06:29:37;20.21;68.07
65239;SHT30;51827;51.186;6.926;2022-10-18T06:30:37;20.21;68.06
65239;SHT30;51827;51.186;6.926;2022-10-18T06:31:38;20.21;68.06
65239;SHT30;51827;51.186;6.926;2022-10-18T06:32:38;20.20;68.04
65239;SHT30;51827;51.186;6.926;2022-10-18T06:33:38;20.20;68.08
65239;SHT30;51827;51.186;6.926;2022-10-18T06:34:39;20.22;68.04
65239;SHT30;51827;51.186;6.926;2022-10-18T06:35:39;20.21;68.03
65239;SHT30;51827;51.186;6.926;2022-10-18T06:36:39;20.22;68.01
65239;SHT30;51827;51.186;6.926;2022-10-18T06:37:39;20.20;68.05
65239;SHT30;51827;51.186;6.926;2022-10-18T06:38:40;20.21;68.02
65239;SHT30;51827;51.186;6.926;2022-10-18T06:39:40;20.22;68.00
65239;SHT30;51827;51.186;6.926;2022-10-18T06:40:40;20.22;67.97
65239;SHT30;51827;51.186;6.926;2022-10-18T06:41:41;20.21;67.99
65239;SHT30;51827;51.186;6.926;2022-10-18T06:42:41;20.21;67.97
65239;SHT30;51827;51.186;6.926;2022-10-18T06:43:41;20.20;67.98
65239;SHT30;51827;51.186;6.926;2022-10-18T06:44:41;20.21;67.98
65239;SHT30;51827;51.186;6.926;2022-10-18T06:45:42;20.21;67.99
65239;SHT30;51827;51.186;6.926;2022-10-18T06:46:43;20.22;67.95
65239;SHT30;51827;51.186;6.926;2022-10-18T06:47:44;20.22;67.96
65239;SHT30;51827;51.186;6.926;2022-10-18T06:48:44;20.24;67.91
65239;SHT30;51827;51.186;6.926;2022-10-18T06:49:45;20.22;67.92
65239;SHT30;51827;51.186;6.926;2022-10-18T06:50:59;20.22;67.92
65239;SHT30;51827;51.186;6.926;2022-10-18T06:51:59;20.20;67.93
65239;SHT30;51827;51.186;6.926;2022-10-18T06:53:00;20.21;67.88